sensor_id;sensor_type;location;lat;lon;timestamp;P1;durP1;ratioP1;P2;durP2;ratioP2
73296;SDS011;61524;50.938;11.396;2022-11-23T00:00:34;7.95;;;4.20;;
73296;SDS011;61524;50.938;11.396;2022-11-23T00:03:01;8.75;;;3.95;;
73296;SDS011;61524;50.938;11.396;2022-11-23T00:05:26;10.07;;;4.45;;
73296;SDS011;61524;50.938;11.396;2022-11-23T00:07:53;7.32;;;4.25;;
73296;SDS011;61524;50.938;11.396;2022-11-23T00:10:18;11.05;;;4.75;;
73296;SDS011;61524;50.938;11.396;2022-11-23T00:12:44;7.55;;;4.68;;
73296;SDS011;61524;50.938;11.396;2022-11-23T00:15:11;10.68;;;5.40;;
73296;SDS011;61524;50.938;11.396;2022-11-23T00:17:37;9.93;;;5.50;;
73296;SDS011;61524;50.938;11.396;2022-11-23T00:20:04;8.93;;;4.30;;
73296;SDS011;61524;50.938;11.396;2022-11-23T00:22:31;8.30;;;3.80;;
73296;SDS011;61524;50.938;11.396;2022-11-23T00:24:57;8.10;;;5.32;;
73296;SDS011;61524;50.938;11.396;2022-11-23T00:27:22;9.18;;;5.00;;
73296;SDS011;61524;50.938;11.396;2022-11-23T00:29:48;9.73;;;5.50;;
73296;SDS011;61524;50.938;11.396;2022-11-23T00:32:13;7.82;;;4.43;;
73296;SDS011;61524;50.938;11.396;2022-11-23T00:34:39;8.32;;;5.40;;
73296;SDS011;61524;50.938;11.396;2022-11-23T00:37:04;11.23;;;4.75;;
73296;SDS011;61524;50.938;11.396;2022-11-23T00:39:30;8.77;;;4.53;;
73296;SDS011;61524;50.938;11.396;2022-11-23T00:41:55;8.50;;;4.25;;
73296;SDS011;61524;50.938;11.396;2022-11-23T00:44:20;9.35;;;4.78;;
73296;SDS011;61524;50.938;11.396;2022-11-23T00:46:46;10.93;;;4.65;;
73296;SDS011;61524;50.938;11.396;2022-11-23T00:49:11;7.75;;;4.10;;
73296;SDS011;61524;50.938;11.396;2022-11-23T00:51:37;10.05;;;4.55;;
73296;SDS011;61524;50.938;11.396;2022-11-23T00:54:02;6.45;;;3.90;;
73296;SDS011;61524;50.938;11.396;2022-11-23T00:56:29;9.10;;;4.25;;
73296;SDS011;61524;50.938;11.396;2022-11-23T00:58:57;8.82;;;4.10;;
73296;SDS011;61524;50.938;11.396;2022-11-23T01:01:24;9.85;;;4.43;;
73296;SDS011;61524;50.938;11.396;2022-11-23T01:03:52;5.10;;;2.22;;
73296;SDS011;61524;50.938;11.396;2022-11-23T01:06:22;8.35;;;4.50;;
73296;SDS011;61524;50.938;11.396;2022-11-23T01:08:49;8.80;;;4.35;;
73296;SDS011;61524;50.938;11.396;2022-11-23T01:11:17;9.75;;;4.90;;
73296;SDS011;61524;50.938;11.396;2022-11-23T01:13:43;8.65;;;4.30;;
73296;SDS011;61524;50.938;11.396;2022-11-23T01:16:12;8.88;;;5.40;;
73296;SDS011;61524;50.938;11.396;2022-11-23T01:19:02;7.97;;;3.72;;
73296;SDS011;61524;50.938;11.396;2022-11-23T01:21:31;9.02;;;4.75;;
73296;SDS011;61524;50.938;11.396;2022-11-23T01:23:57;6.13;;;3.45;;
73296;SDS011;61524;50.938;11.396;2022-11-23T01:26:23;8.07;;;4.13;;
73296;SDS011;61524;50.938;11.396;2022-11-23T01:28:48;9.05;;;4.32;;
73296;SDS011;61524;50.938;11.396;2022-11-23T01:31:15;8.60;;;3.08;;
73296;SDS011;61524;50.938;11.396;2022-11-23T01:33:43;9.82;;;5.07;;
73296;SDS011;61524;50.938;11.396;2022-11-23T01:36:13;10.63;;;4.57;;
73296;SDS011;61524;50.938;11.396;2022-11-23T01:38:40;8.90;;;5.18;;
73296;SDS011;61524;50.938;11.396;2022-11-23T01:41:07;10.25;;;5.05;;
73296;SDS011;61524;50.938;11.396;2022-11-23T01:43:35;7.80;;;4.32;;
73296;SDS011;61524;50.938;11.396;2022-11-23T01:46:01;11.60;;;5.07;;
73296;SDS011;61524;50.938;11.396;2022-11-23T01:48:30;10.35;;;4.50;;
73296;SDS011;61524;50.938;11.396;2022-11-23T01:51:01;10.73;;;5.35;;
73296;SDS011;61524;50.938;11.396;2022-11-23T01:53:29;9.98;;;4.70;;
73296;SDS011;61524;50.938;11.396;2022-11-23T01:55:57;8.50;;;5.05;;
73296;SDS011;61524;50.938;11.396;2022-11-23T01:58:25;9.90;;;5.13;;
73296;SDS011;61524;50.938;11.396;2022-11-23T02:00:53;9.00;;;5.90;;
73296;SDS011;61524;50.938;11.396;2022-11-23T02:03:19;8.70;;;5.03;;
73296;SDS011;61524;50.938;11.396;2022-11-23T02:05:48;9.20;;;4.65;;
73296;SDS011;61524;50.938;11.396;2022-11-23T02:08:18;7.28;;;4.55;;
73296;SDS011;61524;50.938;11.396;2022-11-23T02:10:44;9.95;;;5.63;;
73296;SDS011;61524;50.938;11.396;2022-11-23T02:13:11;12.73;;;5.53;;
73296;SDS011;61524;50.938;11.396;2022-11-23T02:15:38;10.32;;;5.05;;
73296;SDS011;61524;50.938;11.396;2022-11-23T02:18:21;9.57;;;4.85;;
73296;SDS011;61524;50.938;11.396;2022-11-23T02:20:49;7.68;;;4.55;;
73296;SDS011;61524;50.938;11.396;2022-11-23T02:26:22;9.52;;;5.03;;
73296;SDS011;61524;50.938;11.396;2022-11-23T02:28:54;13.73;;;5.25;;
73296;SDS011;61524;50.938;11.396;2022-11-23T02:34:07;6.67;;;4.13;;
73296;SDS011;61524;50.938;11.396;2022-11-23T02:36:39;8.60;;;5.00;;
73296;SDS011;61524;50.938;11.396;2022-11-23T02:39:11;9.73;;;5.00;;
73296;SDS011;61524;50.938;11.396;2022-11-23T02:41:50;10.27;;;4.93;;
73296;SDS011;61524;50.938;11.396;2022-11-23T02:46:49;8.73;;;5.40;;
73296;SDS011;61524;50.938;11.396;2022-11-23T02:49:16;9.15;;;4.63;;
73296;SDS011;61524;50.938;11.396;2022-11-23T02:51:42;12.05;;;5.85;;
73296;SDS011;61524;50.938;11.396;2022-11-23T02:54:07;11.02;;;4.47;;
73296;SDS011;61524;50.938;11.396;2022-11-23T02:56:33;11.55;;;4.63;;
73296;SDS011;61524;50.938;11.396;2022-11-23T02:58:58;8.73;;;5.30;;
73296;SDS011;61524;50.938;11.396;2022-11-23T03:01:24;12.00;;;4.78;;
73296;SDS011;61524;50.938;11.396;2022-11-23T03:03:49;13.93;;;5.65;;
73296;SDS011;61524;50.938;11.396;2022-11-23T03:06:15;10.02;;;5.20;;
73296;SDS011;61524;50.938;11.396;2022-11-23T03:08:41;8.85;;;5.10;;
73296;SDS011;61524;50.938;11.396;2022-11-23T03:11:06;9.40;;;4.78;;
73296;SDS011;61524;50.938;11.396;2022-11-23T03:13:32;7.60;;;4.40;;
73296;SDS011;61524;50.938;11.396;2022-11-23T03:15:57;9.57;;;4.60;;
73296;SDS011;61524;50.938;11.396;2022-11-23T03:18:23;10.20;;;5.22;;
73296;SDS011;61524;50.938;11.396;2022-11-23T03:20:49;6.03;;;4.10;;
73296;SDS011;61524;50.938;11.396;2022-11-23T03:23:15;8.00;;;4.45;;
73296;SDS011;61524;50.938;11.396;2022-11-23T03:25:40;8.10;;;4.68;;
73296;SDS011;61524;50.938;11.396;2022-11-23T03:28:06;8.32;;;4.00;;
73296;SDS011;61524;50.938;11.396;2022-11-23T03:30:31;10.30;;;4.40;;
73296;SDS011;61524;50.938;11.396;2022-11-23T03:32:56;7.88;;;4.50;;
73296;SDS011;61524;50.938;11.396;2022-11-23T03:35:22;7.93;;;3.55;;
73296;SDS011;61524;50.938;11.396;2022-11-23T03:37:48;5.63;;;3.60;;
73296;SDS011;61524;50.938;11.396;2022-11-23T03:40:13;8.02;;;4.82;;
73296;SDS011;61524;50.938;11.396;2022-11-23T03:42:39;7.43;;;4.13;;
73296;SDS011;61524;50.938;11.396;2022-11-23T03:45:05;6.43;;;3.33;;
73296;SDS011;61524;50.938;11.396;2022-11-23T03:47:32;7.82;;;3.75;;
73296;SDS011;61524;50.938;11.396;2022-11-23T03:49:57;11.20;;;3.88;;
73296;SDS011;61524;50.938;11.396;2022-11-23T03:52:23;8.02;;;3.75;;
73296;SDS011;61524;50.938;11.396;2022-11-23T03:54:48;9.82;;;4.88;;
73296;SDS011;61524;50.938;11.396;2022-11-23T03:57:14;12.95;;;4.90;;
73296;SDS011;61524;50.938;11.396;2022-11-23T03:59:39;8.45;;;4.22;;
73296;SDS011;61524;50.938;11.396;2022-11-23T04:02:05;8.73;;;4.75;;
73296;SDS011;61524;50.938;11.396;2022-11-23T04:04:32;10.63;;;5.05;;
73296;SDS011;61524;50.938;11.396;2022-11-23T04:06:57;8.20;;;4.50;;
73296;SDS011;61524;50.938;11.396;2022-11-23T04:09:23;9.63;;;4.30;;
73296;SDS011;61524;50.938;11.396;2022-11-23T04:11:48;8.05;;;4.55;;
73296;SDS011;61524;50.938;11.396;2022-11-23T04:14:14;9.00;;;4.43;;
73296;SDS011;61524;50.938;11.396;2022-11-23T04:16:39;8.20;;;4.18;;
73296;SDS011;61524;50.938;11.396;2022-11-23T04:19:05;9.27;;;4.38;;
73296;SDS011;61524;50.938;11.396;2022-11-23T04:21:30;8.93;;;4.57;;
73296;SDS011;61524;50.938;11.396;2022-11-23T04:23:56;7.07;;;3.90;;
73296;SDS011;61524;50.938;11.396;2022-11-23T04:26:21;7.05;;;4.28;;
73296;SDS011;61524;50.938;11.396;2022-11-23T04:28:46;8.77;;;3.90;;
73296;SDS011;61524;50.938;11.396;2022-11-23T04:31:12;5.75;;;3.88;;
73296;SDS011;61524;50.938;11.396;2022-11-23T04:33:37;6.93;;;3.90;;
73296;SDS011;61524;50.938;11.396;2022-11-23T04:36:03;7.03;;;4.30;;
73296;SDS011;61524;50.938;11.396;2022-11-23T04:38:28;11.73;;;4.45;;
73296;SDS011;61524;50.938;11.396;2022-11-23T04:40:54;9.02;;;3.70;;
73296;SDS011;61524;50.938;11.396;2022-11-23T04:43:19;7.50;;;4.32;;
73296;SDS011;61524;50.938;11.396;2022-11-23T04:45:45;11.27;;;3.85;;
73296;SDS011;61524;50.938;11.396;2022-11-23T04:48:10;7.03;;;3.83;;
73296;SDS011;61524;50.938;11.396;2022-11-23T04:50:35;6.38;;;3.80;;
73296;SDS011;61524;50.938;11.396;2022-11-23T04:53:02;7.25;;;3.30;;
73296;SDS011;61524;50.938;11.396;2022-11-23T04:55:28;6.75;;;3.20;;
73296;SDS011;61524;50.938;11.396;2022-11-23T04:57:53;5.78;;;3.30;;
73296;SDS011;61524;50.938;11.396;2022-11-23T05:00:19;8.73;;;4.40;;
73296;SDS011;61524;50.938;11.396;2022-11-23T05:02:44;6.80;;;4.00;;
73296;SDS011;61524;50.938;11.396;2022-11-23T05:05:10;11.27;;;3.72;;
73296;SDS011;61524;50.938;11.396;2022-11-23T05:07:35;8.40;;;3.80;;
73296;SDS011;61524;50.938;11.396;2022-11-23T05:10:01;7.22;;;3.65;;
73296;SDS011;61524;50.938;11.396;2022-11-23T05:12:26;7.97;;;3.45;;
73296;SDS011;61524;50.938;11.396;2022-11-23T05:14:52;11.57;;;3.80;;
73296;SDS011;61524;50.938;11.396;2022-11-23T05:17:18;9.07;;;3.72;;
73296;SDS011;61524;50.938;11.396;2022-11-23T05:19:43;7.70;;;4.32;;
73296;SDS011;61524;50.938;11.396;2022-11-23T05:22:09;11.27;;;4.00;;
73296;SDS011;61524;50.938;11.396;2022-11-23T05:24:35;6.63;;;3.60;;
73296;SDS011;61524;50.938;11.396;2022-11-23T05:27:00;8.43;;;3.88;;
73296;SDS011;61524;50.938;11.396;2022-11-23T05:29:26;8.30;;;3.90;;
73296;SDS011;61524;50.938;11.396;2022-11-23T05:31:51;9.80;;;3.83;;
73296;SDS011;61524;50.938;11.396;2022-11-23T05:34:17;7.18;;;3.28;;
73296;SDS011;61524;50.938;11.396;2022-11-23T05:36:43;9.52;;;3.92;;
73296;SDS011;61524;50.938;11.396;2022-11-23T05:39:08;10.68;;;3.72;;
73296;SDS011;61524;50.938;11.396;2022-11-23T05:41:34;10.80;;;3.67;;
73296;SDS011;61524;50.938;11.396;2022-11-23T05:43:59;9.20;;;4.00;;
73296;SDS011;61524;50.938;11.396;2022-11-23T05:46:25;6.93;;;3.80;;
73296;SDS011;61524;50.938;11.396;2022-11-23T05:48:50;8.88;;;3.35;;
73296;SDS011;61524;50.938;11.396;2022-11-23T05:51:16;6.10;;;3.25;;
73296;SDS011;61524;50.938;11.396;2022-11-23T05:53:41;8.90;;;4.15;;
73296;SDS011;61524;50.938;11.396;2022-11-23T05:56:06;4.63;;;2.63;;
73296;SDS011;61524;50.938;11.396;2022-11-23T05:58:32;6.85;;;3.35;;
73296;SDS011;61524;50.938;11.396;2022-11-23T06:00:58;5.40;;;3.75;;
73296;SDS011;61524;50.938;11.396;2022-11-23T06:03:24;6.38;;;3.47;;
73296;SDS011;61524;50.938;11.396;2022-11-23T06:05:49;7.38;;;3.10;;
73296;SDS011;61524;50.938;11.396;2022-11-23T06:08:15;7.53;;;3.55;;
73296;SDS011;61524;50.938;11.396;2022-11-23T06:10:40;7.70;;;3.50;;
73296;SDS011;61524;50.938;11.396;2022-11-23T06:13:06;7.93;;;3.50;;
73296;SDS011;61524;50.938;11.396;2022-11-23T06:15:31;7.10;;;3.28;;
73296;SDS011;61524;50.938;11.396;2022-11-23T06:17:59;7.05;;;3.72;;
73296;SDS011;61524;50.938;11.396;2022-11-23T06:20:26;7.28;;;3.67;;
73296;SDS011;61524;50.938;11.396;2022-11-23T06:22:53;12.32;;;4.25;;
73296;SDS011;61524;50.938;11.396;2022-11-23T06:25:19;8.63;;;4.18;;
73296;SDS011;61524;50.938;11.396;2022-11-23T06:27:55;8.45;;;3.63;;
73296;SDS011;61524;50.938;11.396;2022-11-23T06:30:21;7.85;;;4.10;;
73296;SDS011;61524;50.938;11.396;2022-11-23T06:32:48;7.15;;;3.72;;
73296;SDS011;61524;50.938;11.396;2022-11-23T06:35:13;7.07;;;4.05;;
73296;SDS011;61524;50.938;11.396;2022-11-23T06:37:39;6.10;;;3.78;;
73296;SDS011;61524;50.938;11.396;2022-11-23T06:40:04;8.02;;;4.75;;
73296;SDS011;61524;50.938;11.396;2022-11-23T06:42:30;7.60;;;3.40;;
73296;SDS011;61524;50.938;11.396;2022-11-23T06:44:55;7.75;;;3.90;;
73296;SDS011;61524;50.938;11.396;2022-11-23T06:47:21;6.35;;;3.78;;
73296;SDS011;61524;50.938;11.396;2022-11-23T06:49:46;8.70;;;3.30;;
73296;SDS011;61524;50.938;11.396;2022-11-23T06:52:12;7.22;;;3.75;;
73296;SDS011;61524;50.938;11.396;2022-11-23T06:54:38;8.35;;;4.18;;
73296;SDS011;61524;50.938;11.396;2022-11-23T06:57:06;8.23;;;4.22;;
73296;SDS011;61524;50.938;11.396;2022-11-23T06:59:32;8.05;;;4.32;;
73296;SDS011;61524;50.938;11.396;2022-11-23T07:01:57;10.77;;;4.22;;
73296;SDS011;61524;50.938;11.396;2022-11-23T07:04:23;6.82;;;3.75;;
73296;SDS011;61524;50.938;11.396;2022-11-23T07:06:48;7.57;;;3.70;;
73296;SDS011;61524;50.938;11.396;2022-11-23T07:09:14;8.60;;;4.35;;
73296;SDS011;61524;50.938;11.396;2022-11-23T07:11:39;7.63;;;4.05;;
73296;SDS011;61524;50.938;11.396;2022-11-23T07:14:04;6.40;;;3.30;;
73296;SDS011;61524;50.938;11.396;2022-11-23T07:16:30;5.75;;;3.70;;
73296;SDS011;61524;50.938;11.396;2022-11-23T07:18:56;6.57;;;3.10;;
73296;SDS011;61524;50.938;11.396;2022-11-23T07:21:22;7.78;;;3.78;;
73296;SDS011;61524;50.938;11.396;2022-11-23T07:23:47;6.05;;;3.08;;
73296;SDS011;61524;50.938;11.396;2022-11-23T07:26:12;8.50;;;3.53;;
73296;SDS011;61524;50.938;11.396;2022-11-23T07:28:38;7.68;;;3.47;;
73296;SDS011;61524;50.938;11.396;2022-11-23T07:31:03;6.30;;;3.50;;
73296;SDS011;61524;50.938;11.396;2022-11-23T07:33:29;5.28;;;3.20;;
73296;SDS011;61524;50.938;11.396;2022-11-23T07:35:54;8.60;;;3.20;;
73296;SDS011;61524;50.938;11.396;2022-11-23T07:38:20;8.60;;;4.07;;
73296;SDS011;61524;50.938;11.396;2022-11-23T07:40:47;6.55;;;3.33;;
73296;SDS011;61524;50.938;11.396;2022-11-23T07:43:13;6.25;;;3.08;;
73296;SDS011;61524;50.938;11.396;2022-11-23T07:45:38;8.85;;;3.70;;
73296;SDS011;61524;50.938;11.396;2022-11-23T07:48:07;9.73;;;4.15;;
73296;SDS011;61524;50.938;11.396;2022-11-23T07:50:34;9.82;;;3.65;;
73296;SDS011;61524;50.938;11.396;2022-11-23T07:53:02;11.57;;;4.25;;
73296;SDS011;61524;50.938;11.396;2022-11-23T07:55:28;6.60;;;3.75;;
73296;SDS011;61524;50.938;11.396;2022-11-23T07:57:54;10.18;;;3.95;;
73296;SDS011;61524;50.938;11.396;2022-11-23T08:00:21;8.27;;;3.88;;
73296;SDS011;61524;50.938;11.396;2022-11-23T08:02:47;8.73;;;3.17;;
73296;SDS011;61524;50.938;11.396;2022-11-23T08:05:13;10.60;;;3.53;;
73296;SDS011;61524;50.938;11.396;2022-11-23T08:07:38;7.57;;;3.30;;
73296;SDS011;61524;50.938;11.396;2022-11-23T08:10:04;7.10;;;3.58;;
73296;SDS011;61524;50.938;11.396;2022-11-23T08:12:30;7.88;;;3.30;;
73296;SDS011;61524;50.938;11.396;2022-11-23T08:14:55;5.65;;;3.10;;
73296;SDS011;61524;50.938;11.396;2022-11-23T08:17:21;6.28;;;3.30;;
73296;SDS011;61524;50.938;11.396;2022-11-23T08:19:46;8.20;;;3.03;;
73296;SDS011;61524;50.938;11.396;2022-11-23T08:22:12;9.52;;;3.20;;
73296;SDS011;61524;50.938;11.396;2022-11-23T08:24:37;7.72;;;2.55;;
73296;SDS011;61524;50.938;11.396;2022-11-23T08:27:03;6.80;;;2.78;;
73296;SDS011;61524;50.938;11.396;2022-11-23T08:29:28;6.03;;;2.65;;
73296;SDS011;61524;50.938;11.396;2022-11-23T08:31:54;6.38;;;2.50;;
73296;SDS011;61524;50.938;11.396;2022-11-23T08:34:20;3.85;;;2.15;;
73296;SDS011;61524;50.938;11.396;2022-11-23T08:36:46;4.82;;;2.20;;
73296;SDS011;61524;50.938;11.396;2022-11-23T08:39:12;3.95;;;1.88;;
73296;SDS011;61524;50.938;11.396;2022-11-23T08:41:39;5.25;;;2.10;;
73296;SDS011;61524;50.938;11.396;2022-11-23T08:44:05;6.70;;;2.58;;
73296;SDS011;61524;50.938;11.396;2022-11-23T08:46:33;3.20;;;1.75;;
73296;SDS011;61524;50.938;11.396;2022-11-23T08:48:59;5.25;;;2.25;;
73296;SDS011;61524;50.938;11.396;2022-11-23T08:51:25;3.08;;;1.52;;
73296;SDS011;61524;50.938;11.396;2022-11-23T08:53:50;6.57;;;1.52;;
73296;SDS011;61524;50.938;11.396;2022-11-23T08:56:16;7.82;;;2.88;;
73296;SDS011;61524;50.938;11.396;2022-11-23T08:58:42;4.60;;;2.00;;
73296;SDS011;61524;50.938;11.396;2022-11-23T09:01:08;4.22;;;1.77;;
73296;SDS011;61524;50.938;11.396;2022-11-23T09:03:39;8.80;;;2.70;;
73296;SDS011;61524;50.938;11.396;2022-11-23T09:06:05;5.18;;;1.98;;
73296;SDS011;61524;50.938;11.396;2022-11-23T09:08:31;5.65;;;1.88;;
73296;SDS011;61524;50.938;11.396;2022-11-23T09:11:00;6.63;;;1.77;;
73296;SDS011;61524;50.938;11.396;2022-11-23T09:13:28;4.93;;;2.03;;
73296;SDS011;61524;50.938;11.396;2022-11-23T09:16:00;7.75;;;2.10;;
73296;SDS011;61524;50.938;11.396;2022-11-23T09:18:26;4.57;;;1.73;;
73296;SDS011;61524;50.938;11.396;2022-11-23T09:20:54;4.53;;;1.70;;
73296;SDS011;61524;50.938;11.396;2022-11-23T09:23:20;9.23;;;1.83;;
73296;SDS011;61524;50.938;11.396;2022-11-23T09:25:46;6.03;;;1.73;;
73296;SDS011;61524;50.938;11.396;2022-11-23T09:28:14;5.13;;;1.50;;
73296;SDS011;61524;50.938;11.396;2022-11-23T09:30:40;6.13;;;1.70;;
73296;SDS011;61524;50.938;11.396;2022-11-23T09:33:06;4.22;;;1.77;;
73296;SDS011;61524;50.938;11.396;2022-11-23T09:35:32;6.07;;;1.50;;
73296;SDS011;61524;50.938;11.396;2022-11-23T09:37:58;4.53;;;1.67;;
73296;SDS011;61524;50.938;11.396;2022-11-23T09:40:34;6.95;;;1.77;;
73296;SDS011;61524;50.938;11.396;2022-11-23T09:45:45;5.00;;;2.17;;
73296;SDS011;61524;50.938;11.396;2022-11-23T09:56:16;5.35;;;1.77;;
73296;SDS011;61524;50.938;11.396;2022-11-23T09:58:53;6.75;;;2.55;;
73296;SDS011;61524;50.938;11.396;2022-11-23T10:01:21;6.75;;;2.20;;
73296;SDS011;61524;50.938;11.396;2022-11-23T10:03:46;5.13;;;2.30;;
73296;SDS011;61524;50.938;11.396;2022-11-23T10:08:47;6.53;;;2.47;;
73296;SDS011;61524;50.938;11.396;2022-11-23T10:13:55;4.10;;;2.00;;
73296;SDS011;61524;50.938;11.396;2022-11-23T10:16:36;8.20;;;2.45;;
73296;SDS011;61524;50.938;11.396;2022-11-23T10:19:14;5.22;;;2.20;;
73296;SDS011;61524;50.938;11.396;2022-11-23T10:21:53;4.57;;;1.50;;
73296;SDS011;61524;50.938;11.396;2022-11-23T10:24:54;4.63;;;1.80;;
73296;SDS011;61524;50.938;11.396;2022-11-23T10:27:21;5.35;;;2.15;;
73296;SDS011;61524;50.938;11.396;2022-11-23T10:29:48;3.80;;;1.45;;
73296;SDS011;61524;50.938;11.396;2022-11-23T10:32:25;7.00;;;2.35;;
73296;SDS011;61524;50.938;11.396;2022-11-23T10:35:01;5.43;;;1.98;;
73296;SDS011;61524;50.938;11.396;2022-11-23T10:37:31;6.97;;;2.10;;
73296;SDS011;61524;50.938;11.396;2022-11-23T10:39:58;4.38;;;1.50;;
73296;SDS011;61524;50.938;11.396;2022-11-23T10:42:35;4.82;;;1.70;;
73296;SDS011;61524;50.938;11.396;2022-11-23T10:45:06;11.68;;;2.05;;
73296;SDS011;61524;50.938;11.396;2022-11-23T10:47:48;4.55;;;1.75;;
73296;SDS011;61524;50.938;11.396;2022-11-23T10:55:31;5.38;;;1.92;;
73296;SDS011;61524;50.938;11.396;2022-11-23T10:57:58;6.13;;;2.20;;
73296;SDS011;61524;50.938;11.396;2022-11-23T11:00:25;8.00;;;2.28;;
73296;SDS011;61524;50.938;11.396;2022-11-23T11:02:56;5.57;;;1.98;;
73296;SDS011;61524;50.938;11.396;2022-11-23T11:08:17;5.25;;;1.90;;
73296;SDS011;61524;50.938;11.396;2022-11-23T11:10:45;5.78;;;1.67;;
73296;SDS011;61524;50.938;11.396;2022-11-23T11:16:25;5.95;;;2.28;;
73296;SDS011;61524;50.938;11.396;2022-11-23T11:18:55;5.57;;;2.20;;
73296;SDS011;61524;50.938;11.396;2022-11-23T11:21:31;6.60;;;2.00;;
73296;SDS011;61524;50.938;11.396;2022-11-23T11:24:03;7.55;;;1.58;;
73296;SDS011;61524;50.938;11.396;2022-11-23T11:26:31;5.90;;;2.25;;
73296;SDS011;61524;50.938;11.396;2022-11-23T11:29:03;11.70;;;2.35;;
73296;SDS011;61524;50.938;11.396;2022-11-23T11:45:56;3.78;;;1.63;;
73296;SDS011;61524;50.938;11.396;2022-11-23T11:48:29;6.38;;;2.00;;
73296;SDS011;61524;50.938;11.396;2022-11-23T11:51:04;4.00;;;1.63;;
73296;SDS011;61524;50.938;11.396;2022-11-23T11:58:57;4.90;;;1.80;;
73296;SDS011;61524;50.938;11.396;2022-11-23T12:04:26;4.97;;;1.20;;
73296;SDS011;61524;50.938;11.396;2022-11-23T12:07:17;10.45;;;2.40;;
73296;SDS011;61524;50.938;11.396;2022-11-23T12:10:11;3.67;;;1.60;;
73296;SDS011;61524;50.938;11.396;2022-11-23T12:12:49;4.38;;;1.90;;
73296;SDS011;61524;50.938;11.396;2022-11-23T12:15:20;6.22;;;1.75;;
73296;SDS011;61524;50.938;11.396;2022-11-23T12:20:39;4.38;;;1.95;;
73296;SDS011;61524;50.938;11.396;2022-11-23T12:23:16;4.07;;;1.55;;
73296;SDS011;61524;50.938;11.396;2022-11-23T12:25:45;3.92;;;1.30;;
73296;SDS011;61524;50.938;11.396;2022-11-23T12:28:38;5.35;;;1.75;;
73296;SDS011;61524;50.938;11.396;2022-11-23T12:32:02;4.93;;;1.67;;
73296;SDS011;61524;50.938;11.396;2022-11-23T12:34:14;6.63;;;1.75;;
73296;SDS011;61524;50.938;11.396;2022-11-23T12:39:50;6.63;;;1.60;;
73296;SDS011;61524;50.938;11.396;2022-11-23T12:47:49;6.45;;;1.67;;
73296;SDS011;61524;50.938;11.396;2022-11-23T12:58:36;4.50;;;1.58;;
73296;SDS011;61524;50.938;11.396;2022-11-23T13:01:11;4.32;;;1.70;;
73296;SDS011;61524;50.938;11.396;2022-11-23T13:09:13;5.20;;;1.83;;
73296;SDS011;61524;50.938;11.396;2022-11-23T13:22:34;5.32;;;1.63;;
73296;SDS011;61524;50.938;11.396;2022-11-23T13:33:00;4.05;;;1.50;;
73296;SDS011;61524;50.938;11.396;2022-11-23T13:40:41;7.55;;;1.67;;
73296;SDS011;61524;50.938;11.396;2022-11-23T13:45:45;6.60;;;1.38;;
73296;SDS011;61524;50.938;11.396;2022-11-23T13:48:40;6.88;;;1.50;;
73296;SDS011;61524;50.938;11.396;2022-11-23T13:51:07;6.38;;;1.50;;
73296;SDS011;61524;50.938;11.396;2022-11-23T13:53:34;5.78;;;2.20;;
73296;SDS011;61524;50.938;11.396;2022-11-23T13:58:48;6.15;;;1.48;;
73296;SDS011;61524;50.938;11.396;2022-11-23T14:04:28;2.13;;;1.00;;
73296;SDS011;61524;50.938;11.396;2022-11-23T14:07:41;6.85;;;1.80;;
73296;SDS011;61524;50.938;11.396;2022-11-23T14:10:15;5.72;;;1.30;;
73296;SDS011;61524;50.938;11.396;2022-11-23T14:15:18;6.28;;;1.42;;
73296;SDS011;61524;50.938;11.396;2022-11-23T14:42:53;4.13;;;1.95;;
73296;SDS011;61524;50.938;11.396;2022-11-23T14:45:20;4.45;;;2.00;;
73296;SDS011;61524;50.938;11.396;2022-11-23T14:47:47;6.45;;;1.65;;
73296;SDS011;61524;50.938;11.396;2022-11-23T14:50:23;7.75;;;1.45;;
73296;SDS011;61524;50.938;11.396;2022-11-23T14:52:51;5.30;;;1.77;;
73296;SDS011;61524;50.938;11.396;2022-11-23T14:55:26;6.25;;;1.70;;
73296;SDS011;61524;50.938;11.396;2022-11-23T14:57:57;5.38;;;1.75;;
73296;SDS011;61524;50.938;11.396;2022-11-23T15:00:28;6.10;;;1.58;;
73296;SDS011;61524;50.938;11.396;2022-11-23T15:03:01;3.00;;;1.40;;
73296;SDS011;61524;50.938;11.396;2022-11-23T15:05:39;7.10;;;1.95;;
73296;SDS011;61524;50.938;11.396;2022-11-23T15:08:14;10.20;;;2.15;;
73296;SDS011;61524;50.938;11.396;2022-11-23T15:11:02;6.60;;;2.58;;
73296;SDS011;61524;50.938;11.396;2022-11-23T15:13:53;6.30;;;1.90;;
73296;SDS011;61524;50.938;11.396;2022-11-23T15:16:19;5.32;;;2.05;;
73296;SDS011;61524;50.938;11.396;2022-11-23T15:18:46;5.70;;;2.25;;
73296;SDS011;61524;50.938;11.396;2022-11-23T15:21:22;5.22;;;1.75;;
73296;SDS011;61524;50.938;11.396;2022-11-23T15:23:51;5.40;;;1.73;;
73296;SDS011;61524;50.938;11.396;2022-11-23T15:26:19;4.85;;;1.77;;
73296;SDS011;61524;50.938;11.396;2022-11-23T15:28:48;8.65;;;2.33;;
73296;SDS011;61524;50.938;11.396;2022-11-23T15:31:18;8.15;;;2.00;;
73296;SDS011;61524;50.938;11.396;2022-11-23T15:33:47;4.55;;;2.38;;
73296;SDS011;61524;50.938;11.396;2022-11-23T15:36:15;4.35;;;1.83;;
73296;SDS011;61524;50.938;11.396;2022-11-23T15:38:50;6.40;;;2.35;;
73296;SDS011;61524;50.938;11.396;2022-11-23T15:41:17;4.32;;;2.45;;
73296;SDS011;61524;50.938;11.396;2022-11-23T15:43:58;3.00;;;1.67;;
73296;SDS011;61524;50.938;11.396;2022-11-23T15:46:26;5.55;;;2.35;;
73296;SDS011;61524;50.938;11.396;2022-11-23T15:48:58;5.38;;;2.42;;
73296;SDS011;61524;50.938;11.396;2022-11-23T15:51:27;7.07;;;1.90;;
73296;SDS011;61524;50.938;11.396;2022-11-23T15:53:58;3.03;;;1.73;;
73296;SDS011;61524;50.938;11.396;2022-11-23T15:56:29;4.57;;;1.90;;
73296;SDS011;61524;50.938;11.396;2022-11-23T15:59:01;4.20;;;1.98;;
73296;SDS011;61524;50.938;11.396;2022-11-23T16:01:28;5.18;;;2.13;;
73296;SDS011;61524;50.938;11.396;2022-11-23T16:04:01;9.45;;;2.45;;
73296;SDS011;61524;50.938;11.396;2022-11-23T16:09:00;9.68;;;3.13;;
73296;SDS011;61524;50.938;11.396;2022-11-23T16:11:33;9.68;;;3.03;;
73296;SDS011;61524;50.938;11.396;2022-11-23T16:14:10;5.72;;;3.00;;
73296;SDS011;61524;50.938;11.396;2022-11-23T16:16:44;6.78;;;2.55;;
73296;SDS011;61524;50.938;11.396;2022-11-23T16:19:26;8.07;;;2.88;;
73296;SDS011;61524;50.938;11.396;2022-11-23T16:21:55;8.05;;;2.67;;
73296;SDS011;61524;50.938;11.396;2022-11-23T16:24:32;8.75;;;3.67;;
73296;SDS011;61524;50.938;11.396;2022-11-23T16:26:59;7.07;;;3.40;;
73296;SDS011;61524;50.938;11.396;2022-11-23T16:29:26;6.10;;;2.80;;
73296;SDS011;61524;50.938;11.396;2022-11-23T16:31:59;5.45;;;2.33;;
73296;SDS011;61524;50.938;11.396;2022-11-23T16:34:27;8.85;;;3.95;;
73296;SDS011;61524;50.938;11.396;2022-11-23T16:36:53;8.43;;;3.70;;
73296;SDS011;61524;50.938;11.396;2022-11-23T16:39:22;7.63;;;3.42;;
73296;SDS011;61524;50.938;11.396;2022-11-23T16:41:48;10.65;;;3.78;;
73296;SDS011;61524;50.938;11.396;2022-11-23T16:44:14;7.13;;;2.78;;
73296;SDS011;61524;50.938;11.396;2022-11-23T16:46:40;6.55;;;2.80;;
73296;SDS011;61524;50.938;11.396;2022-11-23T16:49:10;8.50;;;3.28;;
73296;SDS011;61524;50.938;11.396;2022-11-23T16:51:38;4.75;;;2.67;;
73296;SDS011;61524;50.938;11.396;2022-11-23T16:54:04;7.15;;;2.85;;
73296;SDS011;61524;50.938;11.396;2022-11-23T16:56:29;10.75;;;3.15;;
73296;SDS011;61524;50.938;11.396;2022-11-23T16:58:55;7.25;;;2.97;;
73296;SDS011;61524;50.938;11.396;2022-11-23T17:01:24;8.00;;;3.22;;
73296;SDS011;61524;50.938;11.396;2022-11-23T17:03:51;5.55;;;3.15;;
73296;SDS011;61524;50.938;11.396;2022-11-23T17:06:17;9.48;;;3.50;;